Terminal Aerodrome Forecast
Issued by NWS Charleston, WV

Current Version | Previous Version | Graphics & Text | Print | Product List | Glossary On
Versions: 1 2 3 4 5 6 7 8 9 10 11 12 13 14 15 16 17 18 19 20 21 22 23 24 25 26 27 28
328
FTUS41 KRLX 280846 AAC
TAFPKB
TAF AMD
KPKB 280846Z 2809/2906 VRB03KT 5SM BR BKN140
     FM281300 00000KT 6SM BR BKN150
     FM281700 VRB03KT P6SM VCTS BKN020CB
     FM282100 24004KT 4SM TSRA BKN025CB=

USA.gov is the U.S. government's official web portal to all federal, state and local government web resources and services.